Terminal Aerodrome Forecast
Issued by NWS Wilmington, OH

Current Version | Previous Version | Text Only | Print | Product List | Glossary Off
Versions: 1 2 3 4 5 6 7 8 9 10 11 12 13 14 15 16 17 18

000
FTUS41 KILN 051100 RRA
TAFDAY
TAF
KDAY 051143Z 0512/0612 22006KT P6SM BKN060
     FM051500 23010KT P6SM SCT060
     FM051800 23012KT P6SM VCTS BKN060CB
     FM060000 20004KT P6SM SCT080=

USA.gov is the U.S. government's official web portal to all federal, state and local government web resources and services.